sensor_id;sensor_type;location;lat;lon;timestamp;pressure;altitude;pressure_sealevel;temperature;humidity
47530;BME280;33272;51.922;7.730;2023-04-01T00:02:08;145164.88;;;10.75;100.00
47530;BME280;33272;51.922;7.730;2023-04-01T00:04:35;145166.19;;;10.75;100.00
47530;BME280;33272;51.922;7.730;2023-04-01T00:07:02;145159.84;;;10.73;100.00
47530;BME280;33272;51.922;7.730;2023-04-01T00:09:29;145163.63;;;10.74;100.00
47530;BME280;33272;51.922;7.730;2023-04-01T00:11:56;145156.03;;;10.71;100.00
47530;BME280;33272;51.922;7.730;2023-04-01T00:14:25;145153.50;;;10.70;100.00
47530;BME280;33272;51.922;7.730;2023-04-01T00:16:52;145140.81;;;10.65;100.00
47530;BME280;33272;51.922;7.730;2023-04-01T00:19:19;145143.38;;;10.66;100.00
47530;BME280;33272;51.922;7.730;2023-04-01T00:21:46;145135.78;;;10.63;100.00
47530;BME280;33272;51.922;7.730;2023-04-01T00:24:14;145140.81;;;10.65;100.00
47530;BME280;33272;51.922;7.730;2023-04-01T00:26:42;145121.81;;;10.57;100.00
47530;BME280;33272;51.922;7.730;2023-04-01T00:29:10;145120.56;;;10.57;100.00
47530;BME280;33272;51.922;7.730;2023-04-01T00:31:38;145130.69;;;10.61;100.00
47530;BME280;33272;51.922;7.730;2023-04-01T00:34:05;145124.34;;;10.58;100.00
47530;BME280;33272;51.922;7.730;2023-04-01T00:36:33;145129.44;;;10.60;100.00
47530;BME280;33272;51.922;7.730;2023-04-01T00:39:00;145123.09;;;10.58;100.00
47530;BME280;33272;51.922;7.730;2023-04-01T00:41:27;145123.09;;;10.58;100.00
47530;BME280;33272;51.922;7.730;2023-04-01T00:44:15;145120.56;;;10.57;100.00
47530;BME280;33272;51.922;7.730;2023-04-01T00:46:45;145119.31;;;10.56;100.00
47530;BME280;33272;51.922;7.730;2023-04-01T00:49:13;145115.47;;;10.55;100.00
47530;BME280;33272;51.922;7.730;2023-04-01T00:51:41;145119.31;;;10.56;100.00
47530;BME280;33272;51.922;7.730;2023-04-01T00:54:09;145128.16;;;10.60;100.00
47530;BME280;33272;51.922;7.730;2023-04-01T00:56:41;145126.91;;;10.59;100.00
47530;BME280;33272;51.922;7.730;2023-04-01T00:59:13;145129.44;;;10.60;100.00
47530;BME280;33272;51.922;7.730;2023-04-01T01:01:41;145134.50;;;10.62;100.00
47530;BME280;33272;51.922;7.730;2023-04-01T01:04:23;145128.16;;;10.60;100.00
47530;BME280;33272;51.922;7.730;2023-04-01T01:07:03;145125.59;;;10.59;100.00
47530;BME280;33272;51.922;7.730;2023-04-01T01:09:44;145124.34;;;10.58;100.00
47530;BME280;33272;51.922;7.730;2023-04-01T01:12:17;145111.69;;;10.53;100.00
47530;BME280;33272;51.922;7.730;2023-04-01T01:14:59;145102.78;;;10.50;100.00
47530;BME280;33272;51.922;7.730;2023-04-01T01:17:43;145082.53;;;10.41;100.00
47530;BME280;33272;51.922;7.730;2023-04-01T01:23:57;145085.06;;;10.42;100.00
47530;BME280;33272;51.922;7.730;2023-04-01T01:26:53;145093.91;;;10.46;100.00
47530;BME280;33272;51.922;7.730;2023-04-01T01:33:09;145100.25;;;10.49;100.00
47530;BME280;33272;51.922;7.730;2023-04-01T01:35:45;145115.47;;;10.55;100.00
47530;BME280;33272;51.922;7.730;2023-04-01T01:38:15;145107.88;;;10.52;100.00
47530;BME280;33272;51.922;7.730;2023-04-01T01:40:47;145112.94;;;10.54;100.00
47530;BME280;33272;51.922;7.730;2023-04-01T01:43:22;145095.22;;;10.47;100.00
47530;BME280;33272;51.922;7.730;2023-04-01T01:45:54;145081.28;;;10.41;100.00
47530;BME280;33272;51.922;7.730;2023-04-01T01:48:22;145081.28;;;10.41;100.00
47530;BME280;33272;51.922;7.730;2023-04-01T01:50:52;145085.06;;;10.42;100.00
47530;BME280;33272;51.922;7.730;2023-04-01T01:53:19;145080.00;;;10.40;100.00
47530;BME280;33272;51.922;7.730;2023-04-01T01:55:48;145088.88;;;10.44;100.00
47530;BME280;33272;51.922;7.730;2023-04-01T01:58:20;145085.06;;;10.42;100.00
47530;BME280;33272;51.922;7.730;2023-04-01T02:00:52;145096.50;;;10.47;100.00
47530;BME280;33272;51.922;7.730;2023-04-01T02:03:21;145085.06;;;10.42;100.00
47530;BME280;33272;51.922;7.730;2023-04-01T02:05:53;145100.25;;;10.49;100.00
47530;BME280;33272;51.922;7.730;2023-04-01T02:08:26;145097.75;;;10.48;100.00
47530;BME280;33272;51.922;7.730;2023-04-01T02:10:58;145099.00;;;10.48;100.00
47530;BME280;33272;51.922;7.730;2023-04-01T02:13:31;145095.22;;;10.47;100.00
47530;BME280;33272;51.922;7.730;2023-04-01T02:16:05;145104.09;;;10.50;100.00
47530;BME280;33272;51.922;7.730;2023-04-01T02:18:35;145106.59;;;10.51;100.00
47530;BME280;33272;51.922;7.730;2023-04-01T02:21:06;145106.59;;;10.51;100.00
47530;BME280;33272;51.922;7.730;2023-04-01T02:23:35;145101.53;;;10.49;100.00
47530;BME280;33272;51.922;7.730;2023-04-01T02:26:04;145097.75;;;10.48;100.00
47530;BME280;33272;51.922;7.730;2023-04-01T02:28:34;145101.53;;;10.49;100.00
47530;BME280;33272;51.922;7.730;2023-04-01T02:31:04;145090.13;;;10.44;100.00
47530;BME280;33272;51.922;7.730;2023-04-01T02:33:31;145097.75;;;10.48;100.00
47530;BME280;33272;51.922;7.730;2023-04-01T02:35:58;145090.13;;;10.44;100.00
47530;BME280;33272;51.922;7.730;2023-04-01T02:38:27;145097.75;;;10.48;100.00
47530;BME280;33272;51.922;7.730;2023-04-01T02:40:58;145090.13;;;10.44;100.00
47530;BME280;33272;51.922;7.730;2023-04-01T02:43:25;145095.22;;;10.47;100.00
47530;BME280;33272;51.922;7.730;2023-04-01T02:45:53;145096.50;;;10.47;100.00
47530;BME280;33272;51.922;7.730;2023-04-01T02:48:20;145091.41;;;10.45;100.00
47530;BME280;33272;51.922;7.730;2023-04-01T02:50:47;145097.75;;;10.48;100.00
47530;BME280;33272;51.922;7.730;2023-04-01T02:53:15;145104.09;;;10.50;100.00
47530;BME280;33272;51.922;7.730;2023-04-01T02:55:43;145104.09;;;10.50;100.00
47530;BME280;33272;51.922;7.730;2023-04-01T02:58:10;145102.78;;;10.50;100.00
47530;BME280;33272;51.922;7.730;2023-04-01T03:00:38;145105.34;;;10.51;100.00
47530;BME280;33272;51.922;7.730;2023-04-01T03:03:05;145099.00;;;10.48;100.00
47530;BME280;33272;51.922;7.730;2023-04-01T03:05:32;145100.25;;;10.49;100.00
47530;BME280;33272;51.922;7.730;2023-04-01T03:07:59;145095.22;;;10.47;100.00
47530;BME280;33272;51.922;7.730;2023-04-01T03:10:26;145091.41;;;10.45;100.00
47530;BME280;33272;51.922;7.730;2023-04-01T03:12:54;145086.31;;;10.43;100.00
47530;BME280;33272;51.922;7.730;2023-04-01T03:15:21;145076.19;;;10.39;100.00
47530;BME280;33272;51.922;7.730;2023-04-01T03:17:48;145077.44;;;10.39;100.00
47530;BME280;33272;51.922;7.730;2023-04-01T03:20:15;145064.81;;;10.34;100.00
47530;BME280;33272;51.922;7.730;2023-04-01T03:22:42;145059.72;;;10.32;100.00
47530;BME280;33272;51.922;7.730;2023-04-01T03:25:10;145066.06;;;10.35;100.00
47530;BME280;33272;51.922;7.730;2023-04-01T03:27:37;145054.63;;;10.30;100.00
47530;BME280;33272;51.922;7.730;2023-04-01T03:30:08;145059.72;;;10.32;100.00
47530;BME280;33272;51.922;7.730;2023-04-01T03:32:35;145055.91;;;10.31;100.00
47530;BME280;33272;51.922;7.730;2023-04-01T03:35:02;145050.84;;;10.29;100.00
47530;BME280;33272;51.922;7.730;2023-04-01T03:37:30;145040.69;;;10.25;100.00
47530;BME280;33272;51.922;7.730;2023-04-01T03:39:57;145044.50;;;10.26;100.00
47530;BME280;33272;51.922;7.730;2023-04-01T03:42:24;145024.19;;;10.18;100.00
47530;BME280;33272;51.922;7.730;2023-04-01T03:44:51;145029.25;;;10.20;100.00
47530;BME280;33272;51.922;7.730;2023-04-01T03:47:20;145039.38;;;10.24;100.00
47530;BME280;33272;51.922;7.730;2023-04-01T03:49:47;145021.66;;;10.17;100.00
47530;BME280;33272;51.922;7.730;2023-04-01T03:52:13;145005.19;;;10.10;100.00
47530;BME280;33272;51.922;7.730;2023-04-01T03:54:40;145029.25;;;10.20;100.00
47530;BME280;33272;51.922;7.730;2023-04-01T03:57:07;145022.91;;;10.17;100.00
47530;BME280;33272;51.922;7.730;2023-04-01T03:59:34;145010.28;;;10.12;100.00
47530;BME280;33272;51.922;7.730;2023-04-01T04:02:02;145008.97;;;10.12;100.00
47530;BME280;33272;51.922;7.730;2023-04-01T04:04:30;145006.44;;;10.11;100.00
47530;BME280;33272;51.922;7.730;2023-04-01T04:06:58;145019.13;;;10.16;100.00
47530;BME280;33272;51.922;7.730;2023-04-01T04:09:25;145019.13;;;10.16;100.00
47530;BME280;33272;51.922;7.730;2023-04-01T04:11:52;145017.88;;;10.15;100.00
47530;BME280;33272;51.922;7.730;2023-04-01T04:14:19;145033.09;;;10.21;100.00
47530;BME280;33272;51.922;7.730;2023-04-01T04:16:46;145030.50;;;10.20;100.00
47530;BME280;33272;51.922;7.730;2023-04-01T04:19:13;145038.13;;;10.24;100.00
47530;BME280;33272;51.922;7.730;2023-04-01T04:21:41;145039.38;;;10.24;100.00
47530;BME280;33272;51.922;7.730;2023-04-01T04:24:09;145047.03;;;10.27;100.00
47530;BME280;33272;51.922;7.730;2023-04-01T04:26:36;145050.84;;;10.29;100.00
47530;BME280;33272;51.922;7.730;2023-04-01T04:29:03;145053.38;;;10.30;100.00
47530;BME280;33272;51.922;7.730;2023-04-01T04:31:30;145041.94;;;10.25;100.00
47530;BME280;33272;51.922;7.730;2023-04-01T04:33:59;145026.75;;;10.19;100.00
47530;BME280;33272;51.922;7.730;2023-04-01T04:36:27;145033.09;;;10.21;100.00
47530;BME280;33272;51.922;7.730;2023-04-01T04:38:55;145028.00;;;10.19;100.00
47530;BME280;33272;51.922;7.730;2023-04-01T04:41:23;145035.59;;;10.23;100.00
47530;BME280;33272;51.922;7.730;2023-04-01T04:43:54;145041.94;;;10.25;100.00
47530;BME280;33272;51.922;7.730;2023-04-01T04:46:22;145036.84;;;10.23;100.00
47530;BME280;33272;51.922;7.730;2023-04-01T04:48:49;145031.78;;;10.21;100.00
47530;BME280;33272;51.922;7.730;2023-04-01T04:51:17;145036.84;;;10.23;100.00
47530;BME280;33272;51.922;7.730;2023-04-01T04:53:46;145011.53;;;10.13;100.00
47530;BME280;33272;51.922;7.730;2023-04-01T04:56:18;145001.41;;;10.09;100.00
47530;BME280;33272;51.922;7.730;2023-04-01T04:58:45;145014.06;;;10.14;100.00
47530;BME280;33272;51.922;7.730;2023-04-01T05:01:14;145005.19;;;10.10;100.00
47530;BME280;33272;51.922;7.730;2023-04-01T05:03:42;145011.53;;;10.13;100.00
47530;BME280;33272;51.922;7.730;2023-04-01T05:06:11;145012.78;;;10.13;100.00
47530;BME280;33272;51.922;7.730;2023-04-01T05:08:40;145010.28;;;10.12;100.00
47530;BME280;33272;51.922;7.730;2023-04-01T05:11:12;145012.78;;;10.13;100.00
47530;BME280;33272;51.922;7.730;2023-04-01T05:13:40;145014.06;;;10.14;100.00
47530;BME280;33272;51.922;7.730;2023-04-01T05:16:09;145015.31;;;10.14;100.00
47530;BME280;33272;51.922;7.730;2023-04-01T05:18:36;145012.78;;;10.13;100.00
47530;BME280;33272;51.922;7.730;2023-04-01T05:21:03;145016.56;;;10.15;100.00
47530;BME280;33272;51.922;7.730;2023-04-01T05:23:31;145019.13;;;10.16;100.00
47530;BME280;33272;51.922;7.730;2023-04-01T05:25:58;145019.13;;;10.16;100.00
47530;BME280;33272;51.922;7.730;2023-04-01T05:28:25;145019.13;;;10.16;100.00
47530;BME280;33272;51.922;7.730;2023-04-01T05:30:54;145026.75;;;10.19;100.00
47530;BME280;33272;51.922;7.730;2023-04-01T05:33:21;145033.09;;;10.21;100.00
47530;BME280;33272;51.922;7.730;2023-04-01T05:35:48;145031.78;;;10.21;100.00
47530;BME280;33272;51.922;7.730;2023-04-01T05:38:15;145040.69;;;10.25;100.00
47530;BME280;33272;51.922;7.730;2023-04-01T05:40:42;145047.03;;;10.27;100.00
47530;BME280;33272;51.922;7.730;2023-04-01T05:43:09;145047.03;;;10.27;100.00
47530;BME280;33272;51.922;7.730;2023-04-01T05:45:36;145049.59;;;10.28;100.00
47530;BME280;33272;51.922;7.730;2023-04-01T05:48:05;145055.91;;;10.31;100.00
47530;BME280;33272;51.922;7.730;2023-04-01T05:50:32;145062.25;;;10.33;100.00
47530;BME280;33272;51.922;7.730;2023-04-01T05:52:59;145067.31;;;10.35;100.00
47530;BME280;33272;51.922;7.730;2023-04-01T05:55:26;145068.59;;;10.36;100.00
47530;BME280;33272;51.922;7.730;2023-04-01T05:57:53;145072.41;;;10.37;100.00
47530;BME280;33272;51.922;7.730;2023-04-01T06:00:20;145078.72;;;10.40;100.00
47530;BME280;33272;51.922;7.730;2023-04-01T06:02:47;145083.78;;;10.42;100.00
47530;BME280;33272;51.922;7.730;2023-04-01T06:05:19;145087.63;;;10.43;100.00
47530;BME280;33272;51.922;7.730;2023-04-01T06:07:47;145091.41;;;10.45;100.00
47530;BME280;33272;51.922;7.730;2023-04-01T06:10:17;145099.00;;;10.48;100.00
47530;BME280;33272;51.922;7.730;2023-04-01T06:13:00;145106.59;;;10.51;100.00
47530;BME280;33272;51.922;7.730;2023-04-01T06:15:39;145114.22;;;10.54;100.00
47530;BME280;33272;51.922;7.730;2023-04-01T06:18:42;145116.72;;;10.55;100.00
47530;BME280;33272;51.922;7.730;2023-04-01T06:24:31;145129.44;;;10.60;100.00
47530;BME280;33272;51.922;7.730;2023-04-01T06:27:08;145137.03;;;10.63;100.00
47530;BME280;33272;51.922;7.730;2023-04-01T06:29:58;145134.50;;;10.62;100.00
47530;BME280;33272;51.922;7.730;2023-04-01T06:32:49;145135.78;;;10.63;100.00
47530;BME280;33272;51.922;7.730;2023-04-01T06:35:41;145128.16;;;10.60;100.00
47530;BME280;33272;51.922;7.730;2023-04-01T06:38:39;145149.69;;;10.68;100.00
47530;BME280;33272;51.922;7.730;2023-04-01T06:41:54;145161.13;;;10.73;100.00
47530;BME280;33272;51.922;7.730;2023-04-01T06:44:35;145185.19;;;10.83;100.00
47530;BME280;33272;51.922;7.730;2023-04-01T06:47:28;145199.16;;;10.88;100.00
47530;BME280;33272;51.922;7.730;2023-04-01T06:50:09;145219.41;;;10.97;100.00
47530;BME280;33272;51.922;7.730;2023-04-01T06:52:46;145246.06;;;11.07;100.00
47530;BME280;33272;51.922;7.730;2023-04-01T06:55:27;145251.09;;;11.09;100.00
47530;BME280;33272;51.922;7.730;2023-04-01T06:58:01;145263.78;;;11.14;100.00
47530;BME280;33272;51.922;7.730;2023-04-01T07:00:34;145280.28;;;11.21;100.00
47530;BME280;33272;51.922;7.730;2023-04-01T07:03:10;145275.22;;;11.19;100.00
47530;BME280;33272;51.922;7.730;2023-04-01T07:05:42;145308.19;;;11.32;100.00
47530;BME280;33272;51.922;7.730;2023-04-01T07:08:12;145320.84;;;11.37;100.00
47530;BME280;33272;51.922;7.730;2023-04-01T07:10:46;145360.16;;;11.53;100.00
47530;BME280;33272;51.922;7.730;2023-04-01T07:13:19;145391.88;;;11.66;100.00
47530;BME280;33272;51.922;7.730;2023-04-01T07:15:58;145426.16;;;11.80;100.00
47530;BME280;33272;51.922;7.730;2023-04-01T07:18:33;145460.44;;;11.94;100.00
47530;BME280;33272;51.922;7.730;2023-04-01T07:21:02;145498.53;;;12.09;100.00
47530;BME280;33272;51.922;7.730;2023-04-01T07:23:33;145497.25;;;12.09;100.00
47530;BME280;33272;51.922;7.730;2023-04-01T07:26:15;145526.47;;;12.20;100.00
47530;BME280;33272;51.922;7.730;2023-04-01T07:28:43;145531.50;;;12.22;100.00
47530;BME280;33272;51.922;7.730;2023-04-01T07:31:20;145553.09;;;12.31;100.00
47530;BME280;33272;51.922;7.730;2023-04-01T07:33:57;145550.56;;;12.30;100.00
47530;BME280;33272;51.922;7.730;2023-04-01T07:36:33;145560.72;;;12.34;100.00
47530;BME280;33272;51.922;7.730;2023-04-01T07:39:12;145561.97;;;12.35;100.00
47530;BME280;33272;51.922;7.730;2023-04-01T07:41:51;145549.31;;;12.29;100.00
47530;BME280;33272;51.922;7.730;2023-04-01T07:44:29;145546.75;;;12.28;100.00
47530;BME280;33272;51.922;7.730;2023-04-01T07:47:18;145529.00;;;12.21;100.00
47530;BME280;33272;51.922;7.730;2023-04-01T07:49:58;145530.25;;;12.22;100.00
47530;BME280;33272;51.922;7.730;2023-04-01T07:52:35;145526.47;;;12.20;100.00
47530;BME280;33272;51.922;7.730;2023-04-01T07:55:13;145518.84;;;12.17;100.00
47530;BME280;33272;51.922;7.730;2023-04-01T07:57:49;145521.38;;;12.18;100.00
47530;BME280;33272;51.922;7.730;2023-04-01T08:00:24;145523.91;;;12.19;100.00
47530;BME280;33272;51.922;7.730;2023-04-01T08:03:19;145498.53;;;12.09;100.00
47530;BME280;33272;51.922;7.730;2023-04-01T08:05:55;145506.13;;;12.12;100.00
47530;BME280;33272;51.922;7.730;2023-04-01T08:08:36;145496.00;;;12.08;100.00
47530;BME280;33272;51.922;7.730;2023-04-01T08:11:19;145506.13;;;12.12;100.00
47530;BME280;33272;51.922;7.730;2023-04-01T08:13:59;145536.59;;;12.24;100.00
47530;BME280;33272;51.922;7.730;2023-04-01T08:16:37;145567.06;;;12.37;100.00
47530;BME280;33272;51.922;7.730;2023-04-01T08:19:19;145589.94;;;12.46;100.00
47530;BME280;33272;51.922;7.730;2023-04-01T08:21:55;145621.66;;;12.59;100.00
47530;BME280;33272;51.922;7.730;2023-04-01T08:24:29;145661.00;;;12.74;100.00
47530;BME280;33272;51.922;7.730;2023-04-01T08:27:03;145647.03;;;12.69;100.00
47530;BME280;33272;51.922;7.730;2023-04-01T08:29:41;145648.31;;;12.69;100.00
47530;BME280;33272;51.922;7.730;2023-04-01T08:32:12;145664.81;;;12.76;100.00
47530;BME280;33272;51.922;7.730;2023-04-01T08:34:47;145673.69;;;12.80;100.00
47530;BME280;33272;51.922;7.730;2023-04-01T08:37:22;145704.16;;;12.92;100.00
47530;BME280;33272;51.922;7.730;2023-04-01T08:39:56;145727.03;;;13.01;100.00
47530;BME280;33272;51.922;7.730;2023-04-01T08:42:55;145716.88;;;12.97;100.00
47530;BME280;33272;51.922;7.730;2023-04-01T08:45:44;145721.97;;;12.99;100.00
47530;BME280;33272;51.922;7.730;2023-04-01T08:48:48;145720.66;;;12.98;100.00
47530;BME280;33272;51.922;7.730;2023-04-01T08:55:17;145710.53;;;12.94;100.00
47530;BME280;33272;51.922;7.730;2023-04-01T08:57:58;145728.28;;;13.02;100.00
47530;BME280;33272;51.922;7.730;2023-04-01T09:00:33;145734.66;;;13.04;100.00
47530;BME280;33272;51.922;7.730;2023-04-01T09:03:54;145721.97;;;12.99;100.00
47530;BME280;33272;51.922;7.730;2023-04-01T09:06:35;145727.03;;;13.01;100.00
47530;BME280;33272;51.922;7.730;2023-04-01T09:09:45;145725.75;;;13.01;100.00
47530;BME280;33272;51.922;7.730;2023-04-01T09:12:37;145746.09;;;13.09;100.00
47530;BME280;33272;51.922;7.730;2023-04-01T09:15:42;145748.63;;;13.10;100.00
47530;BME280;33272;51.922;7.730;2023-04-01T09:24:32;145748.63;;;13.10;100.00
47530;BME280;33272;51.922;7.730;2023-04-01T09:27:05;145779.13;;;13.22;100.00
47530;BME280;33272;51.922;7.730;2023-04-01T09:30:33;145763.88;;;13.16;100.00
47530;BME280;33272;51.922;7.730;2023-04-01T09:36:25;145776.59;;;13.21;100.00
47530;BME280;33272;51.922;7.730;2023-04-01T09:38:59;145779.13;;;13.22;100.00
47530;BME280;33272;51.922;7.730;2023-04-01T09:41:39;145805.81;;;13.33;100.00
47530;BME280;33272;51.922;7.730;2023-04-01T09:44:18;145826.16;;;13.41;100.00
47530;BME280;33272;51.922;7.730;2023-04-01T09:47:00;145818.53;;;13.38;100.00
47530;BME280;33272;51.922;7.730;2023-04-01T09:49:57;145809.66;;;13.34;100.00
47530;BME280;33272;51.922;7.730;2023-04-01T09:52:35;145829.94;;;13.42;100.00
47530;BME280;33272;51.922;7.730;2023-04-01T09:55:29;145833.78;;;13.44;100.00
47530;BME280;33272;51.922;7.730;2023-04-01T09:58:50;145819.81;;;13.38;100.00
47530;BME280;33272;51.922;7.730;2023-04-01T10:08:28;145817.28;;;13.37;100.00
47530;BME280;33272;51.922;7.730;2023-04-01T10:11:30;145805.81;;;13.33;100.00
47530;BME280;33272;51.922;7.730;2023-04-01T10:14:30;145835.06;;;13.44;100.00
47530;BME280;33272;51.922;7.730;2023-04-01T10:17:35;145846.47;;;13.49;100.00
47530;BME280;33272;51.922;7.730;2023-04-01T10:20:39;145869.34;;;13.58;100.00
47530;BME280;33272;51.922;7.730;2023-04-01T10:26:39;145894.78;;;13.68;100.00
47530;BME280;33272;51.922;7.730;2023-04-01T10:29:51;145896.06;;;13.69;100.00
47530;BME280;33272;51.922;7.730;2023-04-01T10:32:48;145896.06;;;13.69;100.00
47530;BME280;33272;51.922;7.730;2023-04-01T10:36:01;145887.16;;;13.65;100.00
47530;BME280;33272;51.922;7.730;2023-04-01T10:42:37;145916.34;;;13.77;100.00
47530;BME280;33272;51.922;7.730;2023-04-01T10:45:46;145955.75;;;13.93;100.00
47530;BME280;33272;51.922;7.730;2023-04-01T10:52:15;146062.53;;;14.36;100.00
47530;BME280;33272;51.922;7.730;2023-04-01T10:54:48;146132.53;;;14.64;100.00
47530;BME280;33272;51.922;7.730;2023-04-01T11:00:45;146306.78;;;15.34;100.00
47530;BME280;33272;51.922;7.730;2023-04-01T11:04:07;146362.75;;;15.57;100.00
47530;BME280;33272;51.922;7.730;2023-04-01T11:07:51;146378.03;;;15.63;100.00
47530;BME280;33272;51.922;7.730;2023-04-01T11:11:08;146389.56;;;15.67;100.00
47530;BME280;33272;51.922;7.730;2023-04-01T11:14:09;146385.69;;;15.66;100.00
47530;BME280;33272;51.922;7.730;2023-04-01T11:17:23;146361.50;;;15.56;100.00
47530;BME280;33272;51.922;7.730;2023-04-01T11:20:36;146327.16;;;15.42;100.00
47530;BME280;33272;51.922;7.730;2023-04-01T11:23:27;146319.53;;;15.39;100.00
47530;BME280;33272;51.922;7.730;2023-04-01T11:26:14;146285.13;;;15.25;100.00
47530;BME280;33272;51.922;7.730;2023-04-01T11:31:54;146199.94;;;14.91;100.00
47530;BME280;33272;51.922;7.730;2023-04-01T11:34:48;146143.94;;;14.69;100.00
47530;BME280;33272;51.922;7.730;2023-04-01T11:37:29;146095.59;;;14.49;100.00
47530;BME280;33272;51.922;7.730;2023-04-01T11:40:17;146065.06;;;14.37;100.00
47530;BME280;33272;51.922;7.730;2023-04-01T11:42:55;146065.06;;;14.37;100.00
47530;BME280;33272;51.922;7.730;2023-04-01T11:45:35;146007.88;;;14.14;100.00
47530;BME280;33272;51.922;7.730;2023-04-01T11:48:32;146018.03;;;14.18;100.00
47530;BME280;33272;51.922;7.730;2023-04-01T11:51:16;146026.94;;;14.22;100.00
47530;BME280;33272;51.922;7.730;2023-04-01T11:53:55;146049.81;;;14.31;100.00
47530;BME280;33272;51.922;7.730;2023-04-01T11:56:49;146060.00;;;14.35;100.00
47530;BME280;33272;51.922;7.730;2023-04-01T12:00:10;146095.59;;;14.49;100.00
47530;BME280;33272;51.922;7.730;2023-04-01T12:02:51;146152.91;;;14.72;100.00
47530;BME280;33272;51.922;7.730;2023-04-01T12:05:37;146159.22;;;14.75;100.00
47530;BME280;33272;51.922;7.730;2023-04-01T12:08:35;146202.47;;;14.92;100.00
47530;BME280;33272;51.922;7.730;2023-04-01T12:11:12;146252.06;;;15.12;100.00
47530;BME280;33272;51.922;7.730;2023-04-01T12:13:51;146277.50;;;15.22;100.00
47530;BME280;33272;51.922;7.730;2023-04-01T12:16:48;146281.34;;;15.24;100.00
47530;BME280;33272;51.922;7.730;2023-04-01T12:19:26;146309.31;;;15.35;100.00
47530;BME280;33272;51.922;7.730;2023-04-01T12:22:22;146316.94;;;15.38;100.00
47530;BME280;33272;51.922;7.730;2023-04-01T12:24:56;146324.59;;;15.41;100.00
47530;BME280;33272;51.922;7.730;2023-04-01T12:27:38;146291.50;;;15.28;100.00
47530;BME280;33272;51.922;7.730;2023-04-01T12:30:32;146236.81;;;15.06;100.00
47530;BME280;33272;51.922;7.730;2023-04-01T12:33:23;146198.63;;;14.91;100.00
47530;BME280;33272;51.922;7.730;2023-04-01T12:36:03;146193.59;;;14.89;100.00
47530;BME280;33272;51.922;7.730;2023-04-01T12:38:43;146198.63;;;14.91;100.00
47530;BME280;33272;51.922;7.730;2023-04-01T12:41:23;146210.13;;;14.95;100.00
47530;BME280;33272;51.922;7.730;2023-04-01T12:44:25;146199.94;;;14.91;100.00
47530;BME280;33272;51.922;7.730;2023-04-01T12:50:19;146210.13;;;14.95;100.00
47530;BME280;33272;51.922;7.730;2023-04-01T12:53:14;146161.78;;;14.76;100.00
47530;BME280;33272;51.922;7.730;2023-04-01T12:55:48;146077.81;;;14.42;100.00
47530;BME280;33272;51.922;7.730;2023-04-01T12:59:03;145963.38;;;13.96;100.00
47530;BME280;33272;51.922;7.730;2023-04-01T13:02:01;145951.97;;;13.91;100.00
47530;BME280;33272;51.922;7.730;2023-04-01T13:11:02;145849.03;;;13.50;100.00
47530;BME280;33272;51.922;7.730;2023-04-01T13:16:55;145795.66;;;13.29;100.00
47530;BME280;33272;51.922;7.730;2023-04-01T13:19:29;145794.41;;;13.28;100.00
47530;BME280;33272;51.922;7.730;2023-04-01T13:22:06;145796.94;;;13.29;100.00
47530;BME280;33272;51.922;7.730;2023-04-01T13:24:43;145807.09;;;13.33;100.00
47530;BME280;33272;51.922;7.730;2023-04-01T13:27:18;145781.63;;;13.23;100.00
47530;BME280;33272;51.922;7.730;2023-04-01T13:30:02;145760.03;;;13.14;100.00
47530;BME280;33272;51.922;7.730;2023-04-01T13:32:38;145772.75;;;13.19;100.00
47530;BME280;33272;51.922;7.730;2023-04-01T13:35:29;145788.03;;;13.26;100.00
47530;BME280;33272;51.922;7.730;2023-04-01T13:38:32;145810.91;;;13.35;100.00
47530;BME280;33272;51.922;7.730;2023-04-01T13:41:18;145836.31;;;13.45;100.00
47530;BME280;33272;51.922;7.730;2023-04-01T13:43:51;145847.78;;;13.50;100.00
47530;BME280;33272;51.922;7.730;2023-04-01T13:46:43;145854.09;;;13.52;100.00
47530;BME280;33272;51.922;7.730;2023-04-01T13:49:39;145870.66;;;13.59;100.00
47530;BME280;33272;51.922;7.730;2023-04-01T13:52:45;145887.16;;;13.65;100.00
47530;BME280;33272;51.922;7.730;2023-04-01T13:55:46;145898.56;;;13.70;100.00
47530;BME280;33272;51.922;7.730;2023-04-01T13:58:42;145920.19;;;13.79;100.00
47530;BME280;33272;51.922;7.730;2023-04-01T14:01:17;145946.84;;;13.89;100.00
47530;BME280;33272;51.922;7.730;2023-04-01T14:04:20;145972.31;;;14.00;100.00
47530;BME280;33272;51.922;7.730;2023-04-01T14:07:15;145990.09;;;14.07;100.00
47530;BME280;33272;51.922;7.730;2023-04-01T14:09:57;146014.25;;;14.17;100.00
47530;BME280;33272;51.922;7.730;2023-04-01T14:12:39;146028.22;;;14.22;100.00
47530;BME280;33272;51.922;7.730;2023-04-01T14:18:37;146028.22;;;14.22;100.00
47530;BME280;33272;51.922;7.730;2023-04-01T14:21:19;146040.91;;;14.27;100.00
47530;BME280;33272;51.922;7.730;2023-04-01T14:24:00;146040.91;;;14.27;100.00
47530;BME280;33272;51.922;7.730;2023-04-01T14:27:06;146029.50;;;14.23;100.00
47530;BME280;33272;51.922;7.730;2023-04-01T14:29:44;146034.56;;;14.25;100.00
47530;BME280;33272;51.922;7.730;2023-04-01T14:32:23;146042.19;;;14.28;100.00
47530;BME280;33272;51.922;7.730;2023-04-01T14:35:12;146057.44;;;14.34;100.00
47530;BME280;33272;51.922;7.730;2023-04-01T14:38:22;146062.53;;;14.36;100.00
47530;BME280;33272;51.922;7.730;2023-04-01T14:41:03;146057.44;;;14.34;100.00
47530;BME280;33272;51.922;7.730;2023-04-01T14:44:16;146060.00;;;14.35;100.00